Time;durP1;ratioP1;P1;durP2;ratioP2;P2;SDS_P1;SDS_P2;PMS_P1;PMS_P2;Temp;Humidity;BMP_temperature;BMP_pressure;BME280_temperature;BME280_humidity;BME280_pressure;Samples;Min_cycle;Max_cycle;Signal;HPM_P1;HPM_P2
2022/09/13 00:02:07;;;;;;;1.85;1.40;;;;;;;28.47;22.49;98045.81;5067060;28;20036;-76
2022/09/13 00:04:33;;;;;;;1.30;1.20;;;;;;;28.48;22.29;98038.94;5067761;28;20047;-76
2022/09/13 00:06:59;;;;;;;1.10;1.00;;;;;;;28.51;22.16;98038.00;5069991;28;20040;-76
2022/09/13 00:09:25;;;;;;;1.58;1.00;;;;;;;28.37;22.42;98043.44;5067785;28;20122;-76
2022/09/13 00:11:51;;;;;;;1.17;1.08;;;;;;;28.41;22.20;98039.22;5068326;28;20481;-76
2022/09/13 00:14:17;;;;;;;1.00;0.85;;;;;;;28.35;22.38;98040.28;5072744;28;20485;-76
2022/09/13 00:16:43;;;;;;;1.65;1.23;;;;;;;28.43;22.47;98036.72;5067829;28;20035;-76
2022/09/13 00:19:09;;;;;;;1.20;0.98;;;;;;;28.64;22.57;98035.06;5070253;28;20045;-76
2022/09/13 00:21:35;;;;;;;1.52;1.20;;;;;;;28.75;22.44;98033.38;5067073;28;20138;-76
2022/09/13 00:24:01;;;;;;;1.42;1.20;;;;;;;28.79;21.82;98035.28;5073691;28;20044;-75
2022/09/13 00:26:28;;;;;;;1.60;1.02;;;;;;;28.61;22.16;98033.22;5067855;28;20542;-76
2022/09/13 00:28:56;;;;;;;1.45;1.33;;;;;;;28.58;22.08;98034.09;5072638;28;20455;-76
2022/09/13 00:31:24;;;;;;;1.77;1.50;;;;;;;28.73;22.06;98035.91;5072971;28;20123;-76
2022/09/13 00:33:50;;;;;;;1.33;1.23;;;;;;;28.76;21.95;98037.00;5073317;28;20025;-76
2022/09/13 00:36:17;;;;;;;2.38;1.63;;;;;;;28.60;22.02;98032.41;5066723;28;20498;-76
2022/09/13 00:38:43;;;;;;;2.38;1.17;;;;;;;28.48;21.96;98026.84;5067994;28;20028;-76
2022/09/13 00:41:15;;;;;;;2.13;1.35;;;;;;;28.37;22.23;98030.09;5072463;28;20410;-76
2022/09/13 00:43:54;;;;;;;1.45;1.35;;;;;;;28.27;22.77;98027.69;5073141;28;20064;-76
2022/09/13 00:46:25;;;;;;;1.58;1.30;;;;;;;28.42;22.50;98023.84;5073166;28;20021;-76
2022/09/13 00:48:55;;;;;;;1.20;1.10;;;;;;;28.45;21.94;98019.31;5074720;28;20121;-76
2022/09/13 00:51:22;;;;;;;1.75;1.17;;;;;;;28.36;21.90;98027.72;5076376;28;20039;-76
2022/09/13 00:53:51;;;;;;;1.25;1.15;;;;;;;28.25;22.46;98024.53;5076603;28;20502;-76
2022/09/13 00:56:35;;;;;;;2.45;1.45;;;;;;;28.37;22.86;98027.28;5069565;28;20494;-76
2022/09/13 00:59:07;;;;;;;1.75;1.30;;;;;;;28.63;22.20;98025.03;5074492;28;20059;-76
2022/09/13 01:01:45;;;;;;;1.48;1.10;;;;;;;28.76;21.60;98025.69;5057491;28;20040;-76
2022/09/13 01:04:12;;;;;;;1.92;1.40;;;;;;;28.93;21.42;98024.16;5068316;28;20492;-76
2022/09/13 01:06:40;;;;;;;1.95;1.67;;;;;;;29.02;21.41;98018.53;5070647;28;20017;-76
2022/09/13 01:09:07;;;;;;;1.50;1.27;;;;;;;28.88;21.42;98010.66;5058755;28;20032;-76
2022/09/13 01:11:54;;;;;;;2.42;1.27;;;;;;;28.77;21.63;98015.97;5067906;28;20052;-76
2022/09/13 01:14:22;;;;;;;1.13;0.95;;;;;;;28.65;21.77;98009.19;5063135;28;20052;-76
2022/09/13 01:16:48;;;;;;;1.38;1.27;;;;;;;28.71;21.49;98012.97;5069206;28;20516;-76
2022/09/13 01:19:15;;;;;;;1.35;1.05;;;;;;;28.58;22.05;98008.69;5068135;28;20620;-76
2022/09/13 01:22:21;;;;;;;1.95;1.42;;;;;;;28.23;22.34;98008.09;5071373;28;20039;-76
2022/09/13 01:25:23;;;;;;;1.95;1.30;;;;;;;28.14;22.64;98010.88;5048694;28;20103;-76
2022/09/13 01:27:55;;;;;;;2.03;1.58;;;;;;;28.08;22.96;98009.13;5061073;28;20045;-76
2022/09/13 01:30:46;;;;;;;1.15;1.00;;;;;;;28.30;22.41;98004.19;5067639;28;20025;-76
2022/09/13 01:33:47;;;;;;;1.17;1.08;;;;;;;28.32;22.13;97998.84;5068424;28;20101;-76
2022/09/13 01:36:25;;;;;;;1.30;1.20;;;;;;;28.15;22.59;98022.91;5065681;28;20029;-76
2022/09/13 01:39:05;;;;;;;1.73;1.10;;;;;;;28.29;22.33;98013.88;5058546;28;20051;-76
2022/09/13 01:41:59;;;;;;;2.13;1.00;;;;;;;28.54;21.82;98022.16;5061719;28;20490;-75
2022/09/13 01:44:50;;;;;;;1.30;1.20;;;;;;;28.75;21.89;98026.97;5061048;28;20067;-76
2022/09/13 01:48:02;;;;;;;1.02;1.00;;;;;;;28.77;22.16;98027.28;5066030;28;20036;-78
2022/09/13 01:50:46;;;;;;;1.30;1.20;;;;;;;28.95;21.58;98023.69;5076181;28;20159;-76
2022/09/13 01:53:44;;;;;;;1.38;1.27;;;;;;;28.95;21.34;98020.88;5060495;28;20433;-75
2022/09/13 01:56:30;;;;;;;1.83;1.60;;;;;;;29.05;21.04;98019.63;5059238;28;20040;-76
2022/09/13 01:59:03;;;;;;;0.90;0.82;;;;;;;28.71;21.02;98012.97;5062697;28;20032;-76
2022/09/13 02:01:38;;;;;;;1.00;0.90;;;;;;;28.48;21.41;98012.72;5062942;28;20573;-76
2022/09/13 02:04:12;;;;;;;1.45;1.08;;;;;;;28.33;21.38;98011.72;5063427;28;20488;-76
2022/09/13 02:06:47;;;;;;;1.25;1.08;;;;;;;28.45;21.35;98005.19;5062880;28;20116;-77
2022/09/13 02:09:21;;;;;;;0.85;0.65;;;;;;;28.48;21.48;98010.69;5064424;28;20036;-76
2022/09/13 02:11:55;;;;;;;1.65;1.27;;;;;;;28.45;21.75;98010.84;5060432;28;20600;-76
2022/09/13 02:14:37;;;;;;;1.23;1.13;;;;;;;28.31;21.40;98003.72;5060483;28;20150;-76
2022/09/13 02:17:11;;;;;;;1.10;1.00;;;;;;;28.12;21.33;98004.91;5065441;28;20111;-76
2022/09/13 02:20:01;;;;;;;0.98;0.93;;;;;;;27.89;21.84;97994.09;5059503;28;20064;-76
2022/09/13 02:22:33;;;;;;;1.65;1.55;;;;;;;28.11;21.44;97992.03;5059309;28;20044;-76
2022/09/13 02:25:08;;;;;;;1.48;1.13;;;;;;;28.26;21.20;97986.59;5066732;28;20478;-76
2022/09/13 02:27:36;;;;;;;1.23;1.13;;;;;;;28.43;21.33;97985.06;5064685;28;20076;-76
2022/09/13 02:30:09;;;;;;;1.23;1.13;;;;;;;28.25;21.26;97973.72;5062482;28;20036;-76
2022/09/13 02:32:40;;;;;;;1.63;1.00;;;;;;;28.18;21.47;97974.81;5064601;28;20044;-76
2022/09/13 02:35:20;;;;;;;2.05;1.30;;;;;;;28.23;21.41;97976.22;5066212;28;20033;-76
2022/09/13 02:38:04;;;;;;;1.10;1.02;;;;;;;28.24;21.68;97978.56;5065734;28;20094;-76
2022/09/13 02:40:40;;;;;;;1.05;1.00;;;;;;;28.31;21.50;97983.19;5066823;28;20043;-76
2022/09/13 02:43:16;;;;;;;1.00;0.90;;;;;;;28.48;21.14;97976.00;5059369;28;20123;-76
2022/09/13 02:46:09;;;;;;;1.35;1.17;;;;;;;28.55;20.83;97979.31;5063706;28;20020;-77
2022/09/13 02:48:50;;;;;;;1.55;1.45;;;;;;;28.46;21.31;97979.28;5066753;28;20111;-77
2022/09/13 02:51:29;;;;;;;0.98;0.98;;;;;;;28.64;20.87;97981.41;5063101;28;20098;-76
2022/09/13 02:54:14;;;;;;;1.00;0.95;;;;;;;28.71;20.55;97979.06;5072343;28;20039;-76
2022/09/13 02:56:52;;;;;;;1.42;1.33;;;;;;;28.59;20.89;97979.22;5066367;28;20180;-76
2022/09/13 02:59:23;;;;;;;1.23;1.08;;;;;;;28.49;20.88;97977.56;5066903;28;20035;-76
2022/09/13 03:02:05;;;;;;;1.10;1.00;;;;;;;28.53;20.63;97975.38;5056510;28;20062;-76
2022/09/13 03:04:33;;;;;;;1.05;0.90;;;;;;;28.40;20.67;97966.25;5056709;28;20036;-76
2022/09/13 03:07:00;;;;;;;1.58;1.13;;;;;;;28.04;20.91;97969.72;5057036;28;20402;-76
2022/09/13 03:09:26;;;;;;;1.50;0.95;;;;;;;27.79;21.25;97964.25;5061801;28;20028;-77
2022/09/13 03:12:02;;;;;;;1.10;1.00;;;;;;;27.89;21.29;97961.00;5066313;28;20036;-77
2022/09/13 03:14:39;;;;;;;1.02;0.93;;;;;;;27.88;21.17;97958.66;5060569;28;20041;-76
2022/09/13 03:17:27;;;;;;;1.20;1.10;;;;;;;27.81;21.55;97956.91;5063945;28;20071;-76
2022/09/13 03:20:08;;;;;;;1.25;1.15;;;;;;;27.95;21.72;97959.16;5060620;28;20533;-76
2022/09/13 03:22:55;;;;;;;1.48;1.05;;;;;;;27.88;21.69;97956.63;5066796;28;20494;-76
2022/09/13 03:25:49;;;;;;;1.00;0.95;;;;;;;28.15;21.22;97955.16;5060769;28;20044;-76
2022/09/13 03:28:33;;;;;;;1.10;1.00;;;;;;;28.16;21.22;97943.44;5059801;28;20059;-76
2022/09/13 03:31:11;;;;;;;0.85;0.80;;;;;;;28.16;21.16;97942.63;5055842;28;20414;-76
2022/09/13 03:34:05;;;;;;;0.82;0.73;;;;;;;28.32;21.07;97945.19;5065848;28;20025;-76
2022/09/13 03:36:46;;;;;;;1.23;0.80;;;;;;;28.47;20.81;97946.19;5063841;28;20033;-76
2022/09/13 03:39:49;;;;;;;0.88;0.85;;;;;;;28.33;21.37;97939.09;5066148;28;20041;-76
2022/09/13 03:42:42;;;;;;;1.25;1.15;;;;;;;28.33;21.00;97935.47;5033825;28;20048;-76
2022/09/13 03:45:11;;;;;;;0.77;0.73;;;;;;;28.39;20.61;97940.03;5056122;28;20040;-76
2022/09/13 03:47:42;;;;;;;1.10;0.80;;;;;;;28.14;21.06;97939.50;5064588;28;20095;-76
2022/09/13 03:50:13;;;;;;;1.10;0.90;;;;;;;28.20;20.79;97938.41;5066444;28;20063;-76
2022/09/13 03:52:39;;;;;;;1.67;1.13;;;;;;;28.34;20.85;97937.03;5058429;28;20111;-76
2022/09/13 03:55:05;;;;;;;1.25;0.90;;;;;;;28.30;20.70;97933.59;5065372;28;20033;-76
2022/09/13 03:57:32;;;;;;;1.30;1.20;;;;;;;27.97;20.68;97936.09;5054103;28;20108;-76
2022/09/13 03:59:58;;;;;;;1.00;1.00;;;;;;;27.42;21.83;97935.81;5056826;28;20029;-76
2022/09/13 04:02:25;;;;;;;0.93;0.93;;;;;;;27.29;22.12;97931.47;5056913;28;21436;-76
2022/09/13 04:04:52;;;;;;;1.20;1.10;;;;;;;27.27;22.11;97936.78;5058961;28;20037;-76
2022/09/13 04:07:20;;;;;;;1.35;1.02;;;;;;;27.60;21.58;97926.69;5059171;28;20024;-76
2022/09/13 04:09:47;;;;;;;1.25;1.10;;;;;;;27.78;21.46;97923.94;5058021;28;20374;-76
2022/09/13 04:12:14;;;;;;;1.23;1.02;;;;;;;27.82;21.15;97926.66;5063363;28;20039;-76
2022/09/13 04:14:42;;;;;;;1.60;1.33;;;;;;;27.81;21.29;97925.84;5062107;28;20037;-76
2022/09/13 04:17:09;;;;;;;1.40;1.15;;;;;;;27.88;20.96;97919.94;5057138;28;20052;-76
2022/09/13 04:19:35;;;;;;;0.90;0.80;;;;;;;27.76;21.40;97929.28;5068084;28;20040;-77
2022/09/13 04:22:01;;;;;;;0.95;0.80;;;;;;;27.82;21.38;97927.41;5071616;28;20041;-77
2022/09/13 04:24:29;;;;;;;3.05;1.05;;;;;;;27.83;21.47;97920.53;5068995;28;20056;-77
2022/09/13 04:26:56;;;;;;;0.98;0.93;;;;;;;27.89;21.12;97929.94;5066324;28;20036;-77
2022/09/13 04:29:23;;;;;;;0.95;0.90;;;;;;;27.90;20.88;97923.06;5062378;28;20025;-77
2022/09/13 04:31:52;;;;;;;2.55;1.17;;;;;;;27.73;21.74;97920.94;5064424;28;20409;-77
2022/09/13 04:34:18;;;;;;;1.20;1.10;;;;;;;27.87;21.60;97920.38;5063978;28;20034;-78
2022/09/13 04:36:45;;;;;;;1.50;1.30;;;;;;;28.05;21.06;97914.84;5071307;28;20036;-78
2022/09/13 04:39:14;;;;;;;1.10;1.00;;;;;;;27.94;21.56;97911.63;5065496;28;20438;-78
2022/09/13 04:41:45;;;;;;;1.55;1.23;;;;;;;27.95;21.86;97916.03;5061890;28;20040;-78
2022/09/13 04:44:13;;;;;;;2.25;1.65;;;;;;;28.23;21.99;97908.47;5061536;28;20401;-77
2022/09/13 04:46:39;;;;;;;1.25;1.13;;;;;;;28.23;21.98;97908.47;5071473;28;20024;-77
2022/09/13 04:49:05;;;;;;;1.50;1.40;;;;;;;28.12;22.53;97923.03;5072591;28;20075;-77
2022/09/13 04:51:31;;;;;;;1.67;1.42;;;;;;;28.26;22.05;97913.19;5075059;28;20064;-77
2022/09/13 04:53:59;;;;;;;1.38;1.27;;;;;;;28.48;22.21;97922.31;5075143;28;20041;-77
2022/09/13 04:56:25;;;;;;;1.55;1.20;;;;;;;28.54;21.99;97918.41;5073278;28;20028;-77
2022/09/13 04:58:51;;;;;;;1.65;1.40;;;;;;;28.39;22.41;97911.00;5064114;28;20037;-77
2022/09/13 05:01:18;;;;;;;1.30;1.20;;;;;;;28.51;22.42;97913.72;5074456;28;20078;-77
2022/09/13 05:03:44;;;;;;;1.13;1.02;;;;;;;28.90;22.08;97920.53;5074931;28;20367;-77
2022/09/13 05:06:18;;;;;;;1.52;1.13;;;;;;;29.21;21.70;97920.38;5071620;28;20063;-77
2022/09/13 05:08:49;;;;;;;2.05;1.00;;;;;;;29.17;21.15;97909.19;5054867;28;20058;-77
2022/09/13 05:11:15;;;;;;;2.35;1.17;;;;;;;29.06;21.50;97919.41;5054874;28;20025;-77
2022/09/13 05:13:41;;;;;;;1.10;1.00;;;;;;;29.27;21.34;97910.00;5065909;28;20031;-77
2022/09/13 05:16:07;;;;;;;1.45;1.20;;;;;;;29.60;21.09;97908.03;5060033;28;20479;-77
2022/09/13 05:18:35;;;;;;;1.23;1.10;;;;;;;29.88;21.19;97911.59;5062649;28;20446;-77
2022/09/13 05:21:03;;;;;;;1.70;1.17;;;;;;;30.07;21.13;97913.09;5075140;28;20036;-77
2022/09/13 05:23:30;;;;;;;1.25;1.15;;;;;;;30.09;20.98;97917.00;5074281;28;20478;-77
2022/09/13 05:25:58;;;;;;;1.15;1.05;;;;;;;30.24;20.89;97919.94;5073060;28;20547;-77
2022/09/13 05:28:25;;;;;;;1.60;1.25;;;;;;;30.21;21.34;97920.88;5071830;28;20028;-77
2022/09/13 05:31:02;;;;;;;1.58;1.13;;;;;;;30.08;21.54;97915.44;5073958;28;20025;-77
2022/09/13 05:33:30;;;;;;;1.80;1.35;;;;;;;29.84;22.33;97916.66;5073662;28;20040;-77
2022/09/13 05:35:56;;;;;;;1.50;1.40;;;;;;;29.26;23.57;97916.94;5073616;28;21699;-77
2022/09/13 05:38:23;;;;;;;2.55;1.55;;;;;;;28.70;24.40;97917.38;5071609;28;20103;-77
2022/09/13 05:40:57;;;;;;;2.13;1.90;;;;;;;28.47;24.99;97921.53;5072846;28;20036;-77
2022/09/13 05:43:24;;;;;;;1.88;1.70;;;;;;;28.30;24.96;97927.94;5073958;28;20043;-77
2022/09/13 05:45:50;;;;;;;2.38;2.17;;;;;;;28.15;25.21;97926.94;5074333;28;20020;-77
2022/09/13 05:48:16;;;;;;;2.05;1.70;;;;;;;28.21;25.26;97937.19;5074081;28;20028;-77
2022/09/13 05:50:43;;;;;;;2.17;1.98;;;;;;;28.47;25.43;97934.88;5073194;28;20505;-77
2022/09/13 05:53:09;;;;;;;3.60;1.83;;;;;;;28.40;25.79;97938.00;5060564;28;20385;-77
2022/09/13 05:55:35;;;;;;;3.75;1.88;;;;;;;28.34;25.78;97939.88;5066582;28;20028;-77
2022/09/13 05:58:02;;;;;;;3.10;1.80;;;;;;;28.39;26.47;97928.75;5072971;28;20040;-77
2022/09/13 06:00:28;;;;;;;2.45;2.20;;;;;;;28.33;26.21;97924.97;5074159;28;20077;-77
2022/09/13 06:02:55;;;;;;;1.45;1.30;;;;;;;28.87;25.51;97932.75;5057150;28;20041;-77
2022/09/13 06:05:21;;;;;;;3.08;1.50;;;;;;;29.22;25.81;97936.88;5070720;28;20029;-77
2022/09/13 06:07:48;;;;;;;1.33;1.23;;;;;;;29.78;25.07;97924.22;5054451;28;20029;-77
2022/09/13 06:10:14;;;;;;;1.58;1.48;;;;;;;30.40;24.18;97930.91;5062586;28;20524;-77
2022/09/13 06:12:40;;;;;;;1.67;1.33;;;;;;;30.92;23.91;97917.34;5071243;28;20462;-77
2022/09/13 06:15:08;;;;;;;1.65;1.42;;;;;;;31.40;23.39;97924.47;5073627;28;20033;-77
2022/09/13 06:17:34;;;;;;;1.27;1.17;;;;;;;31.69;23.25;97930.19;5073467;28;20033;-77
2022/09/13 06:20:00;;;;;;;1.65;1.48;;;;;;;32.01;22.69;97926.38;5072691;28;20037;-77
2022/09/13 06:22:31;;;;;;;1.50;1.40;;;;;;;32.28;22.62;97921.63;5072668;28;20489;-77
2022/09/13 06:24:58;;;;;;;1.83;1.73;;;;;;;32.45;22.40;97923.41;5053677;28;20029;-77
2022/09/13 06:27:24;;;;;;;1.75;1.65;;;;;;;32.63;22.20;97930.91;5053276;28;20078;-77
2022/09/13 06:29:50;;;;;;;1.75;1.55;;;;;;;32.56;22.72;97929.28;5053577;28;20367;-77
2022/09/13 06:32:16;;;;;;;3.22;1.65;;;;;;;32.21;22.47;97928.47;5053039;28;20457;-77
2022/09/13 06:34:42;;;;;;;1.30;1.17;;;;;;;32.23;23.28;97933.69;5056814;28;20086;-77
2022/09/13 06:37:08;;;;;;;1.70;1.60;;;;;;;32.41;23.40;97930.56;5073355;28;20037;-77
2022/09/13 06:39:34;;;;;;;1.67;1.25;;;;;;;32.58;22.61;97935.25;5068824;28;20455;-78
2022/09/13 06:42:00;;;;;;;1.80;1.38;;;;;;;32.24;23.35;97932.38;5053295;28;20028;-77
2022/09/13 06:44:26;;;;;;;1.20;1.10;;;;;;;32.61;23.40;97927.78;5059403;28;20029;-78
2022/09/13 06:46:52;;;;;;;2.80;1.33;;;;;;;32.69;22.40;97917.56;5072300;28;20386;-77
2022/09/13 06:49:18;;;;;;;1.65;1.23;;;;;;;32.57;22.65;97924.38;5072970;28;20044;-78
2022/09/13 06:51:44;;;;;;;3.80;1.50;;;;;;;32.65;23.04;97919.84;5071685;28;20082;-78
2022/09/13 06:54:11;;;;;;;1.60;1.33;;;;;;;32.61;22.77;97927.78;5072864;28;20036;-78
2022/09/13 06:56:38;;;;;;;1.27;1.17;;;;;;;32.47;23.37;97925.75;5071232;28;20048;-77
2022/09/13 06:59:06;;;;;;;1.40;1.30;;;;;;;32.64;23.21;97927.59;5052965;28;20049;-78
2022/09/13 07:01:38;;;;;;;2.15;1.30;;;;;;;32.66;22.71;97938.44;5063949;28;20028;-78
2022/09/13 07:04:07;;;;;;;1.20;1.13;;;;;;;32.53;23.06;97938.81;5073046;28;20028;-78
2022/09/13 07:06:35;;;;;;;1.27;1.17;;;;;;;32.65;23.42;97939.75;5072700;28;20036;-78
2022/09/13 07:09:03;;;;;;;1.45;1.27;;;;;;;32.79;22.66;97933.22;5072894;28;20071;-78
2022/09/13 07:11:34;;;;;;;1.40;1.30;;;;;;;32.91;23.27;97940.59;5072733;28;20040;-78
2022/09/13 07:14:00;;;;;;;;;;;;;;;32.86;22.99;97935.59;5068485;28;20115;-78
2022/09/13 07:16:29;;;;;;;1.08;0.98;;;;;;;32.55;22.94;97933.41;5065027;28;19921;-78
2022/09/13 07:18:58;;;;;;;1.45;1.10;;;;;;;32.47;23.50;97937.91;5072855;28;20047;-78
2022/09/13 07:21:25;;;;;;;1.20;1.10;;;;;;;32.46;23.56;97944.09;5071578;28;20043;-78
2022/09/13 07:23:52;;;;;;;1.50;1.40;;;;;;;32.70;23.77;97942.66;5072504;28;20556;-78
2022/09/13 07:26:18;;;;;;;1.20;1.10;;;;;;;33.05;23.71;97939.00;5072963;28;20020;-78
2022/09/13 07:28:47;;;;;;;1.25;1.15;;;;;;;32.96;23.26;97934.19;5072571;28;20032;-78
2022/09/13 07:31:13;;;;;;;2.05;1.25;;;;;;;33.27;23.58;97928.66;5071533;28;20021;-78
2022/09/13 07:33:41;;;;;;;2.10;1.30;;;;;;;33.48;23.98;97920.84;5072701;28;20100;-78
2022/09/13 07:36:08;;;;;;;1.98;1.73;;;;;;;33.39;23.23;97924.63;5071442;28;20020;-78
2022/09/13 07:38:40;;;;;;;1.40;1.30;;;;;;;33.54;24.25;97920.94;5072854;28;20056;-78
2022/09/13 07:41:09;;;;;;;2.42;1.20;;;;;;;33.70;23.25;97923.16;5068399;28;20445;-78
2022/09/13 07:43:38;;;;;;;2.25;1.48;;;;;;;33.99;23.10;97926.50;5054662;28;20063;-78
2022/09/13 07:46:13;;;;;;;3.65;1.80;;;;;;;32.92;23.90;97925.09;5065733;28;20032;-78
2022/09/13 07:48:41;;;;;;;1.50;1.40;;;;;;;33.01;23.87;97924.97;5062814;28;20039;-78
2022/09/13 07:51:10;;;;;;;1.73;1.38;;;;;;;33.49;23.81;97930.16;5053397;28;20406;-78
2022/09/13 07:53:38;;;;;;;1.75;1.35;;;;;;;33.87;23.04;97929.75;5057109;28;20043;-78
2022/09/13 07:56:05;;;;;;;1.40;1.08;;;;;;;34.02;22.86;97930.41;5056078;28;20025;-78
2022/09/13 07:58:33;;;;;;;1.45;1.30;;;;;;;32.79;25.39;97929.59;5056098;28;20029;-78
2022/09/13 08:01:13;;;;;;;1.83;1.33;;;;;;;33.27;24.26;97931.50;5071023;28;20036;-78
2022/09/13 08:03:39;;;;;;;1.70;1.60;;;;;;;32.45;24.69;97925.47;5076219;28;20504;-78
2022/09/13 08:06:07;;;;;;;1.65;1.50;;;;;;;32.67;24.86;97925.81;5075156;28;20037;-78
2022/09/13 08:08:34;;;;;;;2.70;1.40;;;;;;;33.40;24.40;97925.41;5076043;28;20104;-78
2022/09/13 08:11:02;;;;;;;1.70;1.60;;;;;;;33.14;23.79;97925.38;5076149;28;20524;-78
2022/09/13 08:13:28;;;;;;;1.70;1.60;;;;;;;33.03;23.93;97921.63;5076022;28;20497;-78
2022/09/13 08:15:55;;;;;;;2.17;1.98;;;;;;;32.28;25.13;97918.78;5075055;28;20042;-78
2022/09/13 08:18:21;;;;;;;1.77;1.40;;;;;;;33.02;24.67;97911.53;5075863;28;20036;-78
2022/09/13 08:20:47;;;;;;;1.73;1.63;;;;;;;33.31;24.51;97906.44;5075958;28;20040;-78
2022/09/13 08:23:13;;;;;;;0.95;0.95;;;;;;;33.62;23.68;97907.78;5074845;28;20039;-78
2022/09/13 08:25:40;;;;;;;1.85;1.10;;;;;;;33.62;23.74;97905.72;5075656;28;20032;-78
2022/09/13 08:28:08;;;;;;;0.90;0.90;;;;;;;34.06;23.77;97903.28;5075650;28;20036;-78
2022/09/13 08:30:36;;;;;;;2.60;1.35;;;;;;;34.09;22.98;97898.63;5063359;28;20029;-78
2022/09/13 08:33:03;;;;;;;2.28;1.20;;;;;;;34.35;22.41;97890.00;5055831;28;20064;-78
2022/09/13 08:35:30;;;;;;;0.80;0.80;;;;;;;34.56;22.24;97891.44;5068642;28;20043;-78
2022/09/13 08:37:57;;;;;;;1.00;1.00;;;;;;;34.61;22.02;97896.41;5074001;28;20121;-78
2022/09/13 08:40:27;;;;;;;0.80;0.80;;;;;;;34.65;22.52;97892.00;5059575;28;20094;-78
2022/09/13 08:42:59;;;;;;;0.87;0.67;;;;;;;34.74;22.50;97888.94;5055444;28;20033;-78
2022/09/13 08:45:25;;;;;;;0.93;0.80;;;;;;;34.51;22.98;97895.00;5069145;28;20033;-78
2022/09/13 08:48:22;;;;;;;1.40;0.98;;;;;;;34.36;21.38;97880.91;5075453;28;20390;-78
2022/09/13 08:51:01;;;;;;;1.17;0.70;;;;;;;34.76;21.79;97877.00;5070404;28;20044;-78
2022/09/13 08:53:31;;;;;;;0.80;0.73;;;;;;;34.25;23.71;97875.16;5068609;28;20040;-78
2022/09/13 08:56:22;;;;;;;0.80;0.73;;;;;;;34.75;22.93;97879.06;5068850;28;20086;-78
2022/09/13 08:58:48;;;;;;;1.00;0.80;;;;;;;34.69;21.71;97881.13;5057685;28;20059;-78
2022/09/13 09:01:36;;;;;;;0.70;0.70;;;;;;;34.61;22.10;97891.44;5075122;28;20028;-78
2022/09/13 09:04:06;;;;;;;1.50;0.70;;;;;;;35.06;22.18;97888.81;5074506;28;20505;-78
2022/09/13 09:06:34;;;;;;;0.70;0.70;;;;;;;35.30;21.69;97877.72;5074641;28;20032;-78
2022/09/13 09:09:06;;;;;;;0.60;0.60;;;;;;;35.13;21.93;97882.59;5075104;28;20028;-78
2022/09/13 09:11:44;;;;;;;0.60;0.60;;;;;;;35.16;22.18;97878.72;5075197;28;20094;-78
2022/09/13 09:14:35;;;;;;;0.70;0.70;;;;;;;34.63;21.18;97876.69;5073734;28;20177;-78
2022/09/13 09:17:15;;;;;;;0.85;0.57;;;;;;;34.62;23.23;97878.75;5075262;28;20040;-78
2022/09/13 09:20:08;;;;;;;0.60;0.60;;;;;;;34.99;20.97;97872.16;5074817;28;20054;-78
2022/09/13 09:22:35;;;;;;;1.00;0.90;;;;;;;35.30;22.57;97869.94;5069282;28;20031;-78
2022/09/13 09:25:01;;;;;;;0.50;0.50;;;;;;;35.40;21.62;97864.75;5054922;28;20086;-78
2022/09/13 09:27:30;;;;;;;0.60;0.50;;;;;;;35.73;21.34;97858.31;5055485;28;20021;-78
2022/09/13 09:29:57;;;;;;;0.88;0.70;;;;;;;35.90;21.53;97864.78;5069227;28;20056;-78
2022/09/13 09:32:46;;;;;;;1.83;0.60;;;;;;;35.94;21.10;97857.50;5054497;28;20033;-78
2022/09/13 09:35:41;;;;;;;0.50;0.50;;;;;;;35.84;21.39;97853.38;5054728;28;20047;-78
2022/09/13 09:38:32;;;;;;;0.50;0.50;;;;;;;35.09;21.37;97844.97;5068969;28;20060;-78
2022/09/13 09:41:10;;;;;;;0.60;0.60;;;;;;;34.10;24.40;97851.72;5074481;28;20507;-78
2022/09/13 09:44:04;;;;;;;0.65;0.52;;;;;;;33.73;24.11;97851.72;5073592;28;20489;-78
2022/09/13 09:46:34;;;;;;;0.80;0.80;;;;;;;34.30;24.41;97843.06;5073770;28;20110;-78
2022/09/13 09:52:09;;;;;;;1.52;0.70;;;;;;;34.16;22.41;97844.00;5054552;28;20185;-78
2022/09/13 09:54:37;;;;;;;0.80;0.60;;;;;;;34.49;22.29;97826.31;5072376;28;20025;-78
2022/09/13 09:57:04;;;;;;;1.25;1.15;;;;;;;34.10;21.27;97840.34;5073783;28;20024;-78
2022/09/13 09:59:32;;;;;;;0.50;0.50;;;;;;;34.56;21.45;97837.25;5073101;28;20033;-78
2022/09/13 10:02:15;;;;;;;0.98;0.50;;;;;;;34.30;20.79;97842.28;5074042;28;20461;-78
2022/09/13 10:04:42;;;;;;;0.50;0.50;;;;;;;34.04;21.49;97836.69;5072727;28;20539;-78
2022/09/13 10:07:31;;;;;;;0.68;0.60;;;;;;;34.64;23.65;97838.31;5073983;28;20032;-78
2022/09/13 10:10:05;;;;;;;1.00;0.60;;;;;;;34.18;21.25;97827.19;5073754;28;20033;-78
2022/09/13 10:12:35;;;;;;;0.45;0.45;;;;;;;34.53;20.51;97826.88;5073220;28;20029;-78
2022/09/13 10:15:16;;;;;;;1.35;0.60;;;;;;;33.88;21.89;97821.00;5054139;28;20033;-78
2022/09/13 10:17:42;;;;;;;0.57;0.57;;;;;;;33.92;22.25;97818.69;5053554;28;20025;-78
2022/09/13 10:20:14;;;;;;;0.40;0.40;;;;;;;34.65;21.79;97822.78;5068408;28;20559;-78
2022/09/13 10:22:43;;;;;;;0.50;0.50;;;;;;;35.28;20.30;97826.06;5055087;28;20048;-78
2022/09/13 10:25:24;;;;;;;0.77;0.52;;;;;;;35.01;20.10;97818.97;5053457;28;20036;-78
2022/09/13 10:27:55;;;;;;;0.50;0.50;;;;;;;35.00;20.76;97817.44;5063684;28;20047;-78
2022/09/13 10:30:33;;;;;;;0.50;0.50;;;;;;;35.45;19.29;97808.94;5073025;28;20091;-78
2022/09/13 10:33:01;;;;;;;0.40;0.40;;;;;;;35.50;19.32;97814.66;5071837;28;20046;-78
2022/09/13 10:35:28;;;;;;;1.15;0.60;;;;;;;35.82;20.44;97810.25;5072928;28;20032;-78
2022/09/13 10:37:55;;;;;;;0.52;0.50;;;;;;;35.71;21.06;97813.09;5080825;28;20474;-78
2022/09/13 10:40:21;;;;;;;0.43;0.40;;;;;;;35.55;22.50;97811.03;5069657;28;20024;-78
2022/09/13 10:43:14;;;;;;;0.50;0.50;;;;;;;35.66;21.36;97807.41;5063436;28;20090;-78
2022/09/13 10:45:41;;;;;;;0.47;0.40;;;;;;;35.34;20.45;97807.63;5073450;28;20090;-78
2022/09/13 10:48:14;;;;;;;0.52;0.40;;;;;;;35.91;21.56;97804.28;5073144;28;20082;-78
2022/09/13 10:50:58;;;;;;;0.50;0.50;;;;;;;36.41;20.43;97797.66;5073098;28;20465;-78
2022/09/13 10:53:37;;;;;;;1.88;0.47;;;;;;;36.86;19.84;97795.38;5072882;28;20036;-78
2022/09/13 10:56:17;;;;;;;1.48;0.57;;;;;;;36.92;18.80;97796.16;5059841;28;20045;-79
2022/09/13 10:58:43;;;;;;;0.40;0.40;;;;;;;35.88;24.14;97787.38;5062788;28;20536;-78
2022/09/13 11:01:36;;;;;;;0.45;0.45;;;;;;;34.52;22.83;97786.16;5051538;28;20644;-78
2022/09/13 11:04:33;;;;;;;0.60;0.60;;;;;;;34.36;21.02;97795.41;5053071;28;20497;-78
2022/09/13 11:07:25;;;;;;;0.50;0.50;;;;;;;34.27;21.15;97789.91;5065635;28;20070;-78
2022/09/13 11:10:10;;;;;;;0.40;0.40;;;;;;;34.22;23.18;97787.81;5072982;28;20035;-78
2022/09/13 11:12:59;;;;;;;0.60;0.60;;;;;;;34.35;21.06;97788.16;5069581;28;20044;-78
2022/09/13 11:15:33;;;;;;;0.50;0.50;;;;;;;35.47;21.37;97783.50;5073046;28;20060;-78
2022/09/13 11:18:12;;;;;;;0.43;0.43;;;;;;;36.21;21.05;97787.31;5072996;28;20089;-78
2022/09/13 11:21:02;;;;;;;0.40;0.40;;;;;;;36.04;18.69;97780.88;5071943;28;20129;-78
2022/09/13 11:23:53;;;;;;;2.05;0.40;;;;;;;35.82;21.43;97775.97;5072878;28;20045;-78
2022/09/13 11:26:31;;;;;;;0.50;0.50;;;;;;;35.25;21.80;97778.56;5064130;28;20440;-78
2022/09/13 11:29:00;;;;;;;0.47;0.47;;;;;;;36.41;19.90;97774.78;5057553;28;20108;-78
2022/09/13 11:31:49;;;;;;;0.95;0.50;;;;;;;35.94;20.49;97768.91;5056544;28;20037;-78
2022/09/13 11:34:41;;;;;;;2.33;0.32;;;;;;;36.54;20.91;97764.34;5056756;28;20508;-78
2022/09/13 11:37:25;;;;;;;0.40;0.40;;;;;;;36.50;19.44;97760.22;5059408;28;20033;-78
2022/09/13 11:39:57;;;;;;;0.30;0.30;;;;;;;36.33;21.60;97751.66;5056919;28;20025;-78
2022/09/13 11:42:37;;;;;;;0.47;0.47;;;;;;;36.27;21.84;97750.91;5056722;28;20043;-78
2022/09/13 11:45:27;;;;;;;0.40;0.40;;;;;;;36.67;18.30;97749.44;5069884;28;20119;-78
2022/09/13 11:47:59;;;;;;;0.40;0.40;;;;;;;37.06;19.69;97746.38;5076465;28;20054;-79
2022/09/13 11:50:32;;;;;;;0.45;0.32;;;;;;;36.93;18.21;97737.59;5073896;28;20037;-79
2022/09/13 11:53:22;;;;;;;0.40;0.40;;;;;;;37.14;18.96;97747.31;5073564;28;20048;-79
2022/09/13 11:55:55;;;;;;;0.43;0.40;;;;;;;36.65;20.21;97737.75;5076308;28;20024;-78
2022/09/13 11:58:33;;;;;;;0.50;0.38;;;;;;;35.78;17.67;97728.97;5064891;28;20040;-78
2022/09/13 12:01:08;;;;;;;0.75;0.30;;;;;;;36.42;20.09;97730.56;5061808;28;20103;-79
2022/09/13 12:04:02;;;;;;;0.40;0.40;;;;;;;36.65;18.41;97727.09;5066054;28;20044;-79
2022/09/13 12:06:38;;;;;;;1.35;0.60;;;;;;;36.40;20.24;97719.66;5069746;28;20074;-79